PWSweather.com
Personal Weather Stations
Station Observations
WD4JKH
Forsyth, GA 31029

Forsyth, GA 31029

Lat: 33.033225, Lon: -83.927995

Elevation: 709

Station Type: Davis Vantage VUE

High Low Average
Temperature 61.1°F16.2°C 36.1°F2.3°C 45.8°F7.7°C
Dew Point 59.9°F15.5°C 29.0°F-1.7°C 40.6°F4.8°C
Winds 12.6 mph 20.3 kmh Calm Calm 5.0 mph W8.0 kmh W
Wind Gusts 22.0 mph35.4 kmh 2.0 mph3.2 kmh 13.0 mph20.9 kmh
Humidity 97% 66% 82%
Pressure 30.11 in1019.6 mb 29.68 in1005.1 mb -
Precipitation 0.46 in11.7 mm - -
Hour Temp Dew Point Humidity Winds Wind Gusts Pressure Precip Precip Rate Daily Precip Total
12:04 AM 61.1°F16.2°C 59.9°F15.5°C 96% 2.5 mph SSE4.0 kmh SSE 16.0 mph25.7 kmh 29.74 in1007.1 mb 0.37 in9.4 mm 5.55 in141.0 mm 0.01 in0.3 mm
12:09 AM 60.9°F16.1°C 59.7°F15.4°C 96% 5.9 mph S9.5 kmh S 14.0 mph22.5 kmh 29.74 in1007.1 mb 0.36 in9.1 mm 0.00 in0.0 mm 0.03 in0.8 mm
12:14 AM 60.7°F15.9°C 59.5°F15.3°C 96% 3.9 mph S6.3 kmh S 14.0 mph22.5 kmh 29.73 in1006.8 mb 0.34 in8.6 mm 0.00 in0.0 mm 0.04 in1.0 mm
12:19 AM 60.7°F15.9°C 59.5°F15.3°C 96% 5.9 mph S9.5 kmh S 18.0 mph29.0 kmh 29.72 in1006.4 mb 0.33 in8.4 mm 0.00 in0.0 mm 0.06 in1.5 mm
12:24 AM 60.6°F15.9°C 59.7°F15.4°C 97% 1.8 mph S2.9 kmh S 18.0 mph29.0 kmh 29.73 in1006.8 mb 0.32 in8.1 mm 0.00 in0.0 mm 0.07 in1.8 mm
12:29 AM 60.6°F15.9°C 59.7°F15.4°C 97% 6.7 mph S10.8 kmh S 18.0 mph29.0 kmh 29.72 in1006.4 mb 0.29 in7.4 mm 0.00 in0.0 mm 0.08 in2.0 mm
12:34 AM 60.5°F15.8°C 59.6°F15.3°C 97% 3.2 mph S5.1 kmh S 18.0 mph29.0 kmh 29.72 in1006.4 mb 0.27 in6.9 mm 0.00 in0.0 mm 0.10 in2.5 mm
12:39 AM 60.5°F15.8°C 59.6°F15.3°C 97% 4.1 mph S6.6 kmh S 13.0 mph20.9 kmh 29.71 in1006.1 mb 0.27 in6.9 mm 0.00 in0.0 mm 0.12 in3.0 mm
12:44 AM 60.5°F15.8°C 59.6°F15.3°C 97% 4.3 mph S6.9 kmh S 14.0 mph22.5 kmh 29.72 in1006.4 mb 0.25 in6.4 mm 0.00 in0.0 mm 0.13 in3.3 mm
12:49 AM 60.5°F15.8°C 59.6°F15.3°C 97% 2.9 mph S4.7 kmh S 14.0 mph22.5 kmh 29.72 in1006.4 mb 0.23 in5.8 mm 0.00 in0.0 mm 0.15 in3.8 mm
12:54 AM 60.5°F15.8°C 59.6°F15.3°C 97% 4.1 mph SSW6.6 kmh SSW 14.0 mph22.5 kmh 29.72 in1006.4 mb 0.22 in5.6 mm 0.00 in0.0 mm 0.17 in4.3 mm
12:59 AM 60.5°F15.8°C 59.6°F15.3°C 97% 5.2 mph S8.4 kmh S 13.0 mph20.9 kmh 29.72 in1006.4 mb 0.21 in5.3 mm 0.00 in0.0 mm 0.20 in5.1 mm
01:04 AM 60.5°F15.8°C 59.6°F15.3°C 97% 4.2 mph S6.8 kmh S 11.0 mph17.7 kmh 29.72 in1006.4 mb 0.21 in5.3 mm 0.00 in0.0 mm 0.22 in5.6 mm
01:09 AM 60.5°F15.8°C 59.6°F15.3°C 97% 2.7 mph SW4.3 kmh SW 11.0 mph17.7 kmh 29.72 in1006.4 mb 0.21 in5.3 mm 0.00 in0.0 mm 0.24 in6.1 mm
01:14 AM 60.5°F15.8°C 59.6°F15.3°C 97% 5.0 mph SW8.0 kmh SW 11.0 mph17.7 kmh 29.72 in1006.4 mb 0.23 in5.8 mm 0.24 in6.1 mm 0.27 in6.9 mm
01:19 AM 60.5°F15.8°C 59.6°F15.3°C 97% 5.2 mph SSW8.4 kmh SSW 11.0 mph17.7 kmh 29.71 in1006.1 mb 0.23 in5.8 mm 0.00 in0.0 mm 0.29 in7.4 mm
01:24 AM 60.5°F15.8°C 59.6°F15.3°C 97% 4.4 mph SSW7.1 kmh SSW 11.0 mph17.7 kmh 29.71 in1006.1 mb 0.24 in6.1 mm 0.12 in3.0 mm 0.31 in7.9 mm
01:29 AM 60.5°F15.8°C 59.6°F15.3°C 97% 3.0 mph WSW4.8 kmh WSW 11.0 mph17.7 kmh 29.72 in1006.4 mb 0.25 in6.4 mm 0.12 in3.0 mm 0.33 in8.4 mm
01:34 AM 60.1°F15.6°C 59.2°F15.1°C 97% 3.2 mph SW5.1 kmh SW 11.0 mph17.7 kmh 29.71 in1006.1 mb 0.25 in6.4 mm 0.00 in0.0 mm 0.35 in8.9 mm
01:39 AM 60.0°F15.6°C 59.1°F15.1°C 97% 2.3 mph SW3.7 kmh SW 10.0 mph16.1 kmh 29.71 in1006.1 mb 0.24 in6.1 mm 0.00 in0.0 mm 0.36 in9.1 mm
01:44 AM 59.7°F15.4°C 58.8°F14.9°C 97% 3.1 mph WSW5.0 kmh WSW 10.0 mph16.1 kmh 29.71 in1006.1 mb 0.23 in5.8 mm 0.00 in0.0 mm 0.36 in9.1 mm
01:49 AM 59.6°F15.3°C 58.7°F14.8°C 97% 2.9 mph WSW4.7 kmh WSW 8.0 mph12.9 kmh 29.71 in1006.1 mb 0.21 in5.3 mm 0.00 in0.0 mm 0.36 in9.1 mm
01:55 AM 59.5°F15.3°C 58.6°F14.8°C 97% 3.8 mph W6.1 kmh W 7.0 mph11.3 kmh 29.72 in1006.4 mb 0.20 in5.1 mm 0.00 in0.0 mm 0.37 in9.4 mm
02:00 AM 59.2°F15.1°C 58.0°F14.4°C 96% 4.4 mph W7.1 kmh W 11.0 mph17.7 kmh 29.72 in1006.4 mb 0.18 in4.6 mm 0.00 in0.0 mm 0.38 in9.7 mm
02:04 AM 58.1°F14.5°C 56.6°F13.7°C 95% 4.1 mph W6.6 kmh W 14.0 mph22.5 kmh 29.72 in1006.4 mb 0.19 in4.8 mm 0.15 in3.8 mm 0.40 in10.2 mm
02:08 AM 57.2°F14.0°C 55.7°F13.2°C 95% 5.2 mph WNW8.4 kmh WNW 14.0 mph22.5 kmh 29.71 in1006.1 mb 0.17 in4.3 mm 0.00 in0.0 mm 0.41 in10.4 mm
02:14 AM 56.8°F13.8°C 55.3°F12.9°C 95% 5.2 mph WNW8.4 kmh WNW 14.0 mph22.5 kmh 29.72 in1006.4 mb 0.16 in4.1 mm 0.00 in0.0 mm 0.42 in10.7 mm
02:19 AM 56.5°F13.6°C 55.0°F12.8°C 95% 6.2 mph WNW10.0 kmh WNW 14.0 mph22.5 kmh 29.72 in1006.4 mb 0.13 in3.3 mm 0.00 in0.0 mm 0.42 in10.7 mm
02:23 AM 56.3°F13.5°C 54.8°F12.7°C 95% 3.8 mph WNW6.1 kmh WNW 12.0 mph19.3 kmh 29.72 in1006.4 mb 0.11 in2.8 mm 0.00 in0.0 mm 0.42 in10.7 mm
02:29 AM 56.2°F13.4°C 55.1°F12.8°C 96% 2.8 mph W4.5 kmh W 12.0 mph19.3 kmh 29.72 in1006.4 mb 0.10 in2.5 mm 0.00 in0.0 mm 0.43 in10.9 mm
02:34 AM 56.1°F13.4°C 55.0°F12.8°C 96% 1.6 mph W2.6 kmh W 12.0 mph19.3 kmh 29.72 in1006.4 mb 0.09 in2.3 mm 0.00 in0.0 mm 0.43 in10.9 mm
02:39 AM 56.0°F13.3°C 54.8°F12.7°C 96% 2.2 mph W3.5 kmh W 7.0 mph11.3 kmh 29.71 in1006.1 mb 0.08 in2.0 mm 0.00 in0.0 mm 0.43 in10.9 mm
02:44 AM 56.0°F13.3°C 54.9°F12.7°C 96% 1.4 mph WSW2.3 kmh WSW 7.0 mph11.3 kmh 29.70 in1005.8 mb 0.07 in1.8 mm 0.00 in0.0 mm 0.43 in10.9 mm
02:49 AM 55.9°F13.3°C 54.8°F12.7°C 96% 1.4 mph W2.3 kmh W 7.0 mph11.3 kmh 29.71 in1006.1 mb 0.07 in1.8 mm 0.00 in0.0 mm 0.43 in10.9 mm
02:54 AM 55.9°F13.3°C 54.7°F12.6°C 96% 1.7 mph W2.7 kmh W 7.0 mph11.3 kmh 29.72 in1006.4 mb 0.07 in1.8 mm 0.00 in0.0 mm 0.44 in11.2 mm
02:59 AM 55.8°F13.2°C 54.7°F12.6°C 96% 1.9 mph W3.1 kmh W 4.0 mph6.4 kmh 29.72 in1006.4 mb 0.06 in1.5 mm 0.00 in0.0 mm 0.44 in11.2 mm
03:04 AM 55.8°F13.2°C 54.7°F12.6°C 96% 3.2 mph WNW5.1 kmh WNW 6.0 mph9.7 kmh 29.72 in1006.4 mb 0.04 in1.0 mm 0.00 in0.0 mm 0.44 in11.2 mm
03:09 AM 55.8°F13.2°C 54.7°F12.6°C 96% 3.8 mph WNW6.1 kmh WNW 9.0 mph14.5 kmh 29.72 in1006.4 mb 0.03 in0.8 mm 0.00 in0.0 mm 0.44 in11.2 mm
03:14 AM 55.7°F13.2°C 54.5°F12.5°C 96% 2.2 mph W3.5 kmh W 9.0 mph14.5 kmh 29.71 in1006.1 mb 0.02 in0.5 mm 0.00 in0.0 mm 0.44 in11.2 mm
03:19 AM 55.6°F13.1°C 54.4°F12.4°C 96% 1.8 mph W2.9 kmh W 9.0 mph14.5 kmh 29.70 in1005.8 mb 0.02 in0.5 mm 0.00 in0.0 mm 0.44 in11.2 mm
03:24 AM 55.6°F13.1°C 54.4°F12.4°C 96% 1.6 mph WNW2.6 kmh WNW 9.0 mph14.5 kmh 29.70 in1005.8 mb 0.02 in0.5 mm 0.00 in0.0 mm 0.44 in11.2 mm
03:29 AM 55.5°F13.1°C 54.3°F12.4°C 96% 1.8 mph W2.9 kmh W 5.0 mph8.0 kmh 29.71 in1006.1 mb 0.01 in0.3 mm 0.00 in0.0 mm 0.44 in11.2 mm
03:34 AM 55.5°F13.1°C 54.3°F12.4°C 96% 1.7 mph W2.7 kmh W 6.0 mph9.7 kmh 29.71 in1006.1 mb 0.01 in0.3 mm 0.00 in0.0 mm 0.44 in11.2 mm
03:39 AM 55.5°F13.1°C 54.3°F12.4°C 96% 2.1 mph WSW3.4 kmh WSW 6.0 mph9.7 kmh 29.71 in1006.1 mb 0.01 in0.3 mm 0.00 in0.0 mm 0.44 in11.2 mm
03:44 AM 55.4°F13.0°C 54.5°F12.5°C 97% 2.0 mph WSW3.2 kmh WSW 6.0 mph9.7 kmh 29.71 in1006.1 mb 0.01 in0.3 mm 0.00 in0.0 mm 0.44 in11.2 mm
03:49 AM 55.4°F13.0°C 54.5°F12.5°C 97% 1.3 mph W2.1 kmh W 6.0 mph9.7 kmh 29.71 in1006.1 mb 0.01 in0.3 mm 0.00 in0.0 mm 0.44 in11.2 mm
03:54 AM 55.4°F13.0°C 54.5°F12.5°C 97% 1.1 mph W1.8 kmh W 5.0 mph8.0 kmh 29.71 in1006.1 mb 0.00 in0.0 mm 0.00 in0.0 mm 0.44 in11.2 mm
03:59 AM 55.4°F13.0°C 54.5°F12.5°C 97% 1.0 mph WSW1.6 kmh WSW 5.0 mph8.0 kmh 29.71 in1006.1 mb 0.00 in0.0 mm 0.00 in0.0 mm 0.44 in11.2 mm
04:04 AM 55.3°F12.9°C 54.4°F12.4°C 97% 1.0 mph ESE1.6 kmh ESE 4.0 mph6.4 kmh 29.68 in1005.1 mb 0.00 in0.0 mm 0.00 in0.0 mm 0.44 in11.2 mm
04:09 AM 55.3°F12.9°C 54.5°F12.5°C 97% Calm Calm 3.0 mph4.8 kmh 29.68 in1005.1 mb 0.01 in0.3 mm 0.12 in3.0 mm 0.45 in11.4 mm
04:14 AM 55.2°F12.9°C 54.3°F12.4°C 97% 1.0 mph W1.6 kmh W 2.0 mph3.2 kmh 29.69 in1005.4 mb 0.02 in0.5 mm 0.12 in3.0 mm 0.46 in11.7 mm
04:19 AM 55.3°F12.9°C 54.4°F12.4°C 97% 1.7 mph WSW2.7 kmh WSW 4.0 mph6.4 kmh 29.70 in1005.8 mb 0.02 in0.5 mm 0.00 in0.0 mm 0.46 in11.7 mm
04:24 AM 55.3°F12.9°C 54.4°F12.4°C 97% 2.4 mph WSW3.9 kmh WSW 6.0 mph9.7 kmh 29.71 in1006.1 mb 0.02 in0.5 mm 0.00 in0.0 mm 0.46 in11.7 mm
04:29 AM 55.2°F12.9°C 54.3°F12.4°C 97% 3.7 mph WSW6.0 kmh WSW 7.0 mph11.3 kmh 29.71 in1006.1 mb 0.02 in0.5 mm 0.00 in0.0 mm 0.46 in11.7 mm
04:34 AM 55.2°F12.9°C 54.3°F12.4°C 97% 2.5 mph WSW4.0 kmh WSW 7.0 mph11.3 kmh 29.72 in1006.4 mb 0.02 in0.5 mm 0.00 in0.0 mm 0.46 in11.7 mm
04:39 AM 55.1°F12.8°C 54.2°F12.3°C 97% 1.5 mph WSW2.4 kmh WSW 7.0 mph11.3 kmh 29.72 in1006.4 mb 0.02 in0.5 mm 0.00 in0.0 mm 0.46 in11.7 mm
04:44 AM 55.0°F12.8°C 54.1°F12.3°C 97% 1.6 mph WSW2.6 kmh WSW 7.0 mph11.3 kmh 29.70 in1005.8 mb 0.02 in0.5 mm 0.00 in0.0 mm 0.46 in11.7 mm
04:49 AM 55.0°F12.8°C 54.2°F12.3°C 97% 1.6 mph S2.6 kmh S 6.0 mph9.7 kmh 29.69 in1005.4 mb 0.02 in0.5 mm 0.00 in0.0 mm 0.46 in11.7 mm
04:54 AM 54.9°F12.7°C 53.7°F12.1°C 96% 3.0 mph WSW4.8 kmh WSW 8.0 mph12.9 kmh 29.69 in1005.4 mb 0.02 in0.5 mm 0.00 in0.0 mm 0.46 in11.7 mm
04:59 AM 54.8°F12.7°C 53.7°F12.1°C 96% 3.7 mph WSW6.0 kmh WSW 8.0 mph12.9 kmh 29.70 in1005.8 mb 0.02 in0.5 mm 0.00 in0.0 mm 0.46 in11.7 mm
05:04 AM 54.8°F12.7°C 53.6°F12.0°C 96% 2.7 mph W4.3 kmh W 8.0 mph12.9 kmh 29.70 in1005.8 mb 0.02 in0.5 mm 0.00 in0.0 mm 0.46 in11.7 mm
05:09 AM 54.8°F12.7°C 53.6°F12.0°C 96% 2.8 mph W4.5 kmh W 11.0 mph17.7 kmh 29.70 in1005.8 mb 0.01 in0.3 mm 0.00 in0.0 mm 0.46 in11.7 mm
05:14 AM 54.7°F12.6°C 53.5°F11.9°C 96% 3.5 mph W5.6 kmh W 11.0 mph17.7 kmh 29.70 in1005.8 mb 0.00 in0.0 mm 0.00 in0.0 mm 0.46 in11.7 mm
05:19 AM 54.7°F12.6°C 53.5°F11.9°C 96% 3.6 mph W5.8 kmh W 12.0 mph19.3 kmh 29.70 in1005.8 mb 0.00 in0.0 mm 0.00 in0.0 mm 0.46 in11.7 mm
05:24 AM 54.6°F12.6°C 53.5°F11.9°C 96% 5.9 mph W9.5 kmh W 12.0 mph19.3 kmh 29.70 in1005.8 mb 0.00 in0.0 mm 0.00 in0.0 mm 0.46 in11.7 mm
05:29 AM 54.6°F12.6°C 53.2°F11.8°C 95% 3.6 mph W5.8 kmh W 13.0 mph20.9 kmh 29.71 in1006.1 mb 0.00 in0.0 mm 0.00 in0.0 mm 0.46 in11.7 mm
05:34 AM 54.5°F12.5°C 53.1°F11.7°C 95% 6.7 mph W10.8 kmh W 13.0 mph20.9 kmh 29.72 in1006.4 mb 0.00 in0.0 mm 0.00 in0.0 mm 0.46 in11.7 mm
05:39 AM 54.5°F12.5°C 53.1°F11.7°C 95% 7.6 mph W12.2 kmh W 14.0 mph22.5 kmh 29.71 in1006.1 mb 0.00 in0.0 mm 0.00 in0.0 mm 0.46 in11.7 mm
05:44 AM 54.3°F12.4°C 52.9°F11.6°C 95% 7.6 mph W12.2 kmh W 16.0 mph25.7 kmh 29.71 in1006.1 mb 0.00 in0.0 mm 0.00 in0.0 mm 0.46 in11.7 mm
05:49 AM 54.2°F12.3°C 52.8°F11.6°C 95% 6.9 mph WSW11.1 kmh WSW 16.0 mph25.7 kmh 29.72 in1006.4 mb 0.00 in0.0 mm 0.00 in0.0 mm 0.46 in11.7 mm
05:54 AM 54.1°F12.3°C 52.7°F11.5°C 95% 3.6 mph W5.8 kmh W 16.0 mph25.7 kmh 29.71 in1006.1 mb 0.00 in0.0 mm 0.00 in0.0 mm 0.46 in11.7 mm
05:59 AM 54.0°F12.2°C 52.6°F11.4°C 95% 3.6 mph W5.8 kmh W 16.0 mph25.7 kmh 29.72 in1006.4 mb 0.00 in0.0 mm 0.00 in0.0 mm 0.46 in11.7 mm
06:04 AM 54.0°F12.2°C 52.6°F11.4°C 95% 3.4 mph WSW5.5 kmh WSW 16.0 mph25.7 kmh 29.72 in1006.4 mb 0.00 in0.0 mm 0.00 in0.0 mm 0.46 in11.7 mm
06:09 AM 54.0°F12.2°C 52.3°F11.3°C 94% 6.4 mph W10.3 kmh W 16.0 mph25.7 kmh 29.72 in1006.4 mb 0.00 in0.0 mm 0.00 in0.0 mm 0.46 in11.7 mm
06:14 AM 54.0°F12.2°C 52.3°F11.3°C 94% 5.8 mph W9.3 kmh W 16.0 mph25.7 kmh 29.73 in1006.8 mb 0.00 in0.0 mm 0.00 in0.0 mm 0.46 in11.7 mm
06:19 AM 54.0°F12.2°C 52.3°F11.3°C 94% 3.4 mph W5.5 kmh W 16.0 mph25.7 kmh 29.73 in1006.8 mb 0.00 in0.0 mm 0.00 in0.0 mm 0.46 in11.7 mm
06:24 AM 53.9°F12.2°C 52.2°F11.2°C 94% 5.6 mph W9.0 kmh W 16.0 mph25.7 kmh 29.73 in1006.8 mb 0.00 in0.0 mm 0.00 in0.0 mm 0.46 in11.7 mm
06:29 AM 53.7°F12.1°C 51.4°F10.8°C 92% 10.6 mph W17.1 kmh W 19.0 mph30.6 kmh 29.74 in1007.1 mb 0.00 in0.0 mm 0.00 in0.0 mm 0.46 in11.7 mm
06:34 AM 53.5°F11.9°C 50.9°F10.5°C 91% 8.5 mph WSW13.7 kmh WSW 20.0 mph32.2 kmh 29.74 in1007.1 mb 0.00 in0.0 mm 0.00 in0.0 mm 0.46 in11.7 mm
06:39 AM 52.9°F11.6°C 50.3°F10.2°C 91% 9.9 mph W15.9 kmh W 21.0 mph33.8 kmh 29.75 in1007.5 mb 0.00 in0.0 mm 0.00 in0.0 mm 0.46 in11.7 mm
06:44 AM 52.4°F11.3°C 49.8°F9.9°C 91% 6.3 mph W10.1 kmh W 21.0 mph33.8 kmh 29.76 in1007.8 mb 0.00 in0.0 mm 0.00 in0.0 mm 0.46 in11.7 mm
06:49 AM 51.9°F11.1°C 49.4°F9.7°C 91% 5.9 mph W9.5 kmh W 21.0 mph33.8 kmh 29.76 in1007.8 mb 0.00 in0.0 mm 0.00 in0.0 mm 0.46 in11.7 mm
06:54 AM 51.5°F10.8°C 49.2°F9.6°C 92% 4.6 mph WNW7.4 kmh WNW 18.0 mph29.0 kmh 29.76 in1007.8 mb 0.00 in0.0 mm 0.00 in0.0 mm 0.46 in11.7 mm
06:59 AM 50.8°F10.4°C 48.6°F9.2°C 92% 7.3 mph WNW11.7 kmh WNW 16.0 mph25.7 kmh 29.77 in1008.1 mb 0.00 in0.0 mm 0.00 in0.0 mm 0.46 in11.7 mm
07:03 AM 50.1°F10.1°C 47.8°F8.8°C 92% 6.0 mph WNW9.7 kmh WNW 15.0 mph24.1 kmh 29.77 in1008.1 mb 0.00 in0.0 mm 0.00 in0.0 mm 0.46 in11.7 mm
07:08 AM 49.7°F9.8°C 47.7°F8.7°C 93% 6.2 mph WNW10.0 kmh WNW 15.0 mph24.1 kmh 29.77 in1008.1 mb 0.00 in0.0 mm 0.00 in0.0 mm 0.46 in11.7 mm
07:13 AM 49.2°F9.6°C 47.0°F8.3°C 92% 7.4 mph WNW11.9 kmh WNW 15.0 mph24.1 kmh 29.78 in1008.5 mb 0.00 in0.0 mm 0.00 in0.0 mm 0.46 in11.7 mm
07:18 AM 48.8°F9.3°C 46.3°F7.9°C 91% 4.8 mph WNW7.7 kmh WNW 14.0 mph22.5 kmh 29.78 in1008.5 mb 0.00 in0.0 mm 0.00 in0.0 mm 0.46 in11.7 mm
07:23 AM 48.3°F9.1°C 45.8°F7.7°C 91% 9.5 mph WNW15.3 kmh WNW 19.0 mph30.6 kmh 29.79 in1008.8 mb 0.00 in0.0 mm 0.00 in0.0 mm 0.46 in11.7 mm
07:28 AM 47.7°F8.7°C 45.2°F7.3°C 91% 8.8 mph WNW14.2 kmh WNW 20.0 mph32.2 kmh 29.79 in1008.8 mb 0.00 in0.0 mm 0.00 in0.0 mm 0.46 in11.7 mm
07:33 AM 47.4°F8.6°C 44.9°F7.2°C 91% 5.2 mph NW8.4 kmh NW 20.0 mph32.2 kmh 29.80 in1009.1 mb 0.00 in0.0 mm 0.00 in0.0 mm 0.46 in11.7 mm
07:38 AM 47.2°F8.4°C 44.4°F6.9°C 90% 8.1 mph WNW13.0 kmh WNW 20.0 mph32.2 kmh 29.80 in1009.1 mb 0.00 in0.0 mm 0.00 in0.0 mm 0.46 in11.7 mm
07:43 AM 47.2°F8.4°C 44.1°F6.7°C 89% 8.2 mph WNW13.2 kmh WNW 20.0 mph32.2 kmh 29.80 in1009.1 mb 0.00 in0.0 mm 0.00 in0.0 mm 0.46 in11.7 mm
07:48 AM 47.1°F8.4°C 44.0°F6.7°C 89% 6.8 mph WNW10.9 kmh WNW 20.0 mph32.2 kmh 29.81 in1009.5 mb 0.00 in0.0 mm 0.00 in0.0 mm 0.46 in11.7 mm
07:53 AM 46.9°F8.3°C 43.5°F6.4°C 88% 5.0 mph WNW8.0 kmh WNW 20.0 mph32.2 kmh 29.81 in1009.5 mb 0.00 in0.0 mm 0.00 in0.0 mm 0.46 in11.7 mm
07:58 AM 46.6°F8.1°C 42.9°F6.1°C 87% 7.0 mph WNW11.3 kmh WNW 20.0 mph32.2 kmh 29.82 in1009.8 mb 0.00 in0.0 mm 0.00 in0.0 mm 0.46 in11.7 mm
08:03 AM 46.4°F8.0°C 42.7°F5.9°C 87% 7.9 mph W12.7 kmh W 16.0 mph25.7 kmh 29.82 in1009.8 mb 0.00 in0.0 mm 0.00 in0.0 mm 0.46 in11.7 mm
08:08 AM 46.3°F7.9°C 42.3°F5.7°C 86% 11.1 mph WNW17.9 kmh WNW 20.0 mph32.2 kmh 29.82 in1009.8 mb 0.00 in0.0 mm 0.00 in0.0 mm 0.46 in11.7 mm
08:13 AM 46.2°F7.9°C 42.5°F5.8°C 87% 5.6 mph WNW9.0 kmh WNW 20.0 mph32.2 kmh 29.83 in1010.2 mb 0.00 in0.0 mm 0.00 in0.0 mm 0.46 in11.7 mm
08:18 AM 46.1°F7.8°C 42.4°F5.8°C 87% 8.2 mph WNW13.2 kmh WNW 20.0 mph32.2 kmh 29.83 in1010.2 mb 0.00 in0.0 mm 0.00 in0.0 mm 0.46 in11.7 mm
08:23 AM 46.0°F7.8°C 42.3°F5.7°C 87% 5.1 mph WNW8.2 kmh WNW 20.0 mph32.2 kmh 29.83 in1010.2 mb 0.00 in0.0 mm 0.00 in0.0 mm 0.46 in11.7 mm
08:28 AM 46.0°F7.8°C 42.3°F5.7°C 87% 6.6 mph WNW10.6 kmh WNW 16.0 mph25.7 kmh 29.83 in1010.2 mb 0.00 in0.0 mm 0.00 in0.0 mm 0.46 in11.7 mm
08:33 AM 46.0°F7.8°C 42.6°F5.9°C 88% 5.2 mph WNW8.4 kmh WNW 16.0 mph25.7 kmh 29.83 in1010.2 mb 0.00 in0.0 mm 0.00 in0.0 mm 0.46 in11.7 mm
08:38 AM 46.1°F7.8°C 42.7°F5.9°C 88% 5.1 mph NW8.2 kmh NW 16.0 mph25.7 kmh 29.84 in1010.5 mb 0.00 in0.0 mm 0.00 in0.0 mm 0.46 in11.7 mm
08:43 AM 46.1°F7.8°C 42.4°F5.8°C 87% 5.9 mph WNW9.5 kmh WNW 16.0 mph25.7 kmh 29.84 in1010.5 mb 0.00 in0.0 mm 0.00 in0.0 mm 0.46 in11.7 mm
08:48 AM 46.1°F7.8°C 42.4°F5.8°C 87% 5.0 mph WNW8.0 kmh WNW 12.0 mph19.3 kmh 29.84 in1010.5 mb 0.00 in0.0 mm 0.00 in0.0 mm 0.46 in11.7 mm
08:53 AM 46.1°F7.8°C 42.7°F5.9°C 88% 2.6 mph WNW4.2 kmh WNW 12.0 mph19.3 kmh 29.85 in1010.8 mb 0.00 in0.0 mm 0.00 in0.0 mm 0.46 in11.7 mm
08:58 AM 45.9°F7.7°C 42.2°F5.7°C 87% 6.4 mph WNW10.3 kmh WNW 12.0 mph19.3 kmh 29.85 in1010.8 mb 0.00 in0.0 mm 0.00 in0.0 mm 0.46 in11.7 mm
09:03 AM 45.8°F7.7°C 42.1°F5.6°C 87% 5.8 mph WNW9.3 kmh WNW 12.0 mph19.3 kmh 29.84 in1010.5 mb 0.00 in0.0 mm 0.00 in0.0 mm 0.46 in11.7 mm
09:08 AM 45.8°F7.7°C 42.4°F5.8°C 88% 6.3 mph WNW10.1 kmh WNW 12.0 mph19.3 kmh 29.84 in1010.5 mb 0.00 in0.0 mm 0.00 in0.0 mm 0.46 in11.7 mm
09:13 AM 45.7°F7.6°C 42.0°F5.6°C 87% 5.8 mph NW9.3 kmh NW 15.0 mph24.1 kmh 29.84 in1010.5 mb 0.00 in0.0 mm 0.00 in0.0 mm 0.46 in11.7 mm
09:18 AM 45.6°F7.6°C 42.2°F5.7°C 88% 2.9 mph WNW4.7 kmh WNW 15.0 mph24.1 kmh 29.84 in1010.5 mb 0.00 in0.0 mm 0.00 in0.0 mm 0.46 in11.7 mm
09:23 AM 45.6°F7.6°C 41.7°F5.4°C 86% 7.5 mph W12.1 kmh W 19.0 mph30.6 kmh 29.84 in1010.5 mb 0.00 in0.0 mm 0.00 in0.0 mm 0.46 in11.7 mm
09:28 AM 46.0°F7.8°C 42.0°F5.6°C 86% 5.5 mph WNW8.9 kmh WNW 19.0 mph30.6 kmh 29.84 in1010.5 mb 0.00 in0.0 mm 0.00 in0.0 mm 0.46 in11.7 mm
09:33 AM 46.1°F7.8°C 42.4°F5.8°C 87% 3.8 mph WNW6.1 kmh WNW 19.0 mph30.6 kmh 29.85 in1010.8 mb 0.00 in0.0 mm 0.00 in0.0 mm 0.46 in11.7 mm
09:38 AM 45.6°F7.6°C 41.3°F5.2°C 85% 4.5 mph WNW7.2 kmh WNW 19.0 mph30.6 kmh 29.85 in1010.8 mb 0.00 in0.0 mm 0.00 in0.0 mm 0.46 in11.7 mm
09:43 AM 45.4°F7.4°C 41.4°F5.2°C 86% 3.7 mph NW6.0 kmh NW 16.0 mph25.7 kmh 29.85 in1010.8 mb 0.00 in0.0 mm 0.00 in0.0 mm 0.46 in11.7 mm
09:48 AM 44.9°F7.2°C 41.2°F5.1°C 87% 5.2 mph WNW8.4 kmh WNW 16.0 mph25.7 kmh 29.85 in1010.8 mb 0.00 in0.0 mm 0.00 in0.0 mm 0.46 in11.7 mm
09:53 AM 44.5°F6.9°C 40.9°F4.9°C 87% 4.5 mph NW7.2 kmh NW 16.0 mph25.7 kmh 29.85 in1010.8 mb 0.00 in0.0 mm 0.00 in0.0 mm 0.46 in11.7 mm
09:58 AM 44.2°F6.8°C 40.5°F4.7°C 87% 6.0 mph WNW9.7 kmh WNW 14.0 mph22.5 kmh 29.86 in1011.2 mb 0.00 in0.0 mm 0.00 in0.0 mm 0.46 in11.7 mm
10:03 AM 44.1°F6.7°C 40.5°F4.7°C 87% 6.1 mph NW9.8 kmh NW 14.0 mph22.5 kmh 29.87 in1011.5 mb 0.00 in0.0 mm 0.00 in0.0 mm 0.46 in11.7 mm
10:08 AM 43.8°F6.6°C 40.2°F4.6°C 87% 6.9 mph WNW11.1 kmh WNW 13.0 mph20.9 kmh 29.87 in1011.5 mb 0.00 in0.0 mm 0.00 in0.0 mm 0.46 in11.7 mm
10:13 AM 43.2°F6.2°C 39.6°F4.2°C 87% 8.5 mph WNW13.7 kmh WNW 15.0 mph24.1 kmh 29.88 in1011.9 mb 0.00 in0.0 mm 0.00 in0.0 mm 0.46 in11.7 mm
10:18 AM 42.9°F6.1°C 39.6°F4.2°C 88% 7.9 mph WNW12.7 kmh WNW 18.0 mph29.0 kmh 29.89 in1012.2 mb 0.00 in0.0 mm 0.00 in0.0 mm 0.46 in11.7 mm
10:23 AM 42.8°F6.0°C 39.5°F4.2°C 88% 7.0 mph WNW11.3 kmh WNW 18.0 mph29.0 kmh 29.89 in1012.2 mb 0.00 in0.0 mm 0.00 in0.0 mm 0.46 in11.7 mm
10:28 AM 42.8°F6.0°C 39.2°F4.0°C 87% 7.3 mph WNW11.7 kmh WNW 18.0 mph29.0 kmh 29.90 in1012.5 mb 0.00 in0.0 mm 0.00 in0.0 mm 0.46 in11.7 mm
10:33 AM 42.7°F5.9°C 39.1°F3.9°C 87% 5.3 mph WNW8.5 kmh WNW 16.0 mph25.7 kmh 29.90 in1012.5 mb 0.00 in0.0 mm 0.00 in0.0 mm 0.46 in11.7 mm
10:38 AM 42.7°F5.9°C 38.8°F3.8°C 86% 5.2 mph WNW8.4 kmh WNW 16.0 mph25.7 kmh 29.91 in1012.9 mb 0.00 in0.0 mm 0.00 in0.0 mm 0.46 in11.7 mm
10:43 AM 42.7°F5.9°C 38.8°F3.8°C 86% 5.8 mph WNW9.3 kmh WNW 16.0 mph25.7 kmh 29.91 in1012.9 mb 0.00 in0.0 mm 0.00 in0.0 mm 0.46 in11.7 mm
10:48 AM 42.6°F5.9°C 38.4°F3.6°C 85% 4.4 mph WNW7.1 kmh WNW 15.0 mph24.1 kmh 29.91 in1012.9 mb 0.00 in0.0 mm 0.00 in0.0 mm 0.46 in11.7 mm
10:53 AM 42.7°F5.9°C 38.5°F3.6°C 85% 5.2 mph WNW8.4 kmh WNW 15.0 mph24.1 kmh 29.91 in1012.9 mb 0.00 in0.0 mm 0.00 in0.0 mm 0.46 in11.7 mm
10:58 AM 42.7°F5.9°C 38.2°F3.4°C 84% 7.8 mph WNW12.6 kmh WNW 21.0 mph33.8 kmh 29.91 in1012.9 mb 0.00 in0.0 mm 0.00 in0.0 mm 0.46 in11.7 mm
11:03 AM 42.5°F5.8°C 37.7°F3.2°C 83% 8.8 mph WNW14.2 kmh WNW 21.0 mph33.8 kmh 29.92 in1013.2 mb 0.00 in0.0 mm 0.00 in0.0 mm 0.46 in11.7 mm
11:08 AM 42.5°F5.8°C 37.4°F3.0°C 82% 8.1 mph WNW13.0 kmh WNW 21.0 mph33.8 kmh 29.91 in1012.9 mb 0.00 in0.0 mm 0.00 in0.0 mm 0.46 in11.7 mm
11:13 AM 42.7°F5.9°C 37.3°F2.9°C 81% 8.2 mph WNW13.2 kmh WNW 21.0 mph33.8 kmh 29.91 in1012.9 mb 0.00 in0.0 mm 0.00 in0.0 mm 0.46 in11.7 mm
11:18 AM 43.0°F6.1°C 37.3°F2.9°C 80% 6.3 mph W10.1 kmh W 21.0 mph33.8 kmh 29.91 in1012.9 mb 0.00 in0.0 mm 0.00 in0.0 mm 0.46 in11.7 mm
11:23 AM 43.3°F6.3°C 37.9°F3.3°C 81% 5.5 mph WNW8.9 kmh WNW 21.0 mph33.8 kmh 29.92 in1013.2 mb 0.00 in0.0 mm 0.00 in0.0 mm 0.46 in11.7 mm
11:28 AM 43.5°F6.4°C 37.5°F3.1°C 79% 7.4 mph WNW11.9 kmh WNW 21.0 mph33.8 kmh 29.92 in1013.2 mb 0.00 in0.0 mm 0.00 in0.0 mm 0.46 in11.7 mm
11:33 AM 43.0°F6.1°C 37.0°F2.8°C 79% 10.9 mph W17.5 kmh W 21.0 mph33.8 kmh 29.92 in1013.2 mb 0.00 in0.0 mm 0.00 in0.0 mm 0.46 in11.7 mm
11:38 AM 42.9°F6.1°C 37.2°F2.9°C 80% 7.5 mph W12.1 kmh W 21.0 mph33.8 kmh 29.92 in1013.2 mb 0.00 in0.0 mm 0.00 in0.0 mm 0.46 in11.7 mm
11:43 AM 42.8°F6.0°C 37.1°F2.8°C 80% 7.5 mph W12.1 kmh W 21.0 mph33.8 kmh 29.92 in1013.2 mb 0.00 in0.0 mm 0.00 in0.0 mm 0.46 in11.7 mm
11:48 AM 43.1°F6.2°C 37.7°F3.2°C 81% 4.3 mph W6.9 kmh W 21.0 mph33.8 kmh 29.92 in1013.2 mb 0.00 in0.0 mm 0.00 in0.0 mm 0.46 in11.7 mm
11:53 AM 43.7°F6.5°C 37.6°F3.1°C 79% 5.4 mph WNW8.7 kmh WNW 18.0 mph29.0 kmh 29.92 in1013.2 mb 0.00 in0.0 mm 0.00 in0.0 mm 0.46 in11.7 mm
11:58 AM 43.4°F6.3°C 36.7°F2.6°C 77% 6.3 mph W10.1 kmh W 16.0 mph25.7 kmh 29.92 in1013.2 mb 0.00 in0.0 mm 0.00 in0.0 mm 0.46 in11.7 mm
12:02 PM 42.9°F6.1°C 35.9°F2.2°C 76% 10.6 mph W17.1 kmh W 21.0 mph33.8 kmh 29.93 in1013.5 mb 0.00 in0.0 mm 0.00 in0.0 mm 0.46 in11.7 mm
12:07 PM 42.7°F5.9°C 36.0°F2.2°C 77% 6.1 mph W9.8 kmh W 21.0 mph33.8 kmh 29.93 in1013.5 mb 0.00 in0.0 mm 0.00 in0.0 mm 0.46 in11.7 mm
12:12 PM 43.0°F6.1°C 36.3°F2.4°C 77% 6.2 mph WNW10.0 kmh WNW 21.0 mph33.8 kmh 29.93 in1013.5 mb 0.00 in0.0 mm 0.00 in0.0 mm 0.46 in11.7 mm
12:17 PM 42.8°F6.0°C 35.8°F2.1°C 76% 9.5 mph NW15.3 kmh NW 21.0 mph33.8 kmh 29.93 in1013.5 mb 0.00 in0.0 mm 0.00 in0.0 mm 0.46 in11.7 mm
12:22 PM 42.8°F6.0°C 35.8°F2.1°C 76% 10.0 mph WNW16.1 kmh WNW 20.0 mph32.2 kmh 29.93 in1013.5 mb 0.00 in0.0 mm 0.00 in0.0 mm 0.46 in11.7 mm
12:27 PM 42.7°F5.9°C 35.7°F2.1°C 76% 7.3 mph WNW11.7 kmh WNW 20.0 mph32.2 kmh 29.94 in1013.9 mb 0.00 in0.0 mm 0.00 in0.0 mm 0.46 in11.7 mm
12:32 PM 42.7°F5.9°C 36.0°F2.2°C 77% 8.2 mph W13.2 kmh W 20.0 mph32.2 kmh 29.95 in1014.2 mb 0.00 in0.0 mm 0.00 in0.0 mm 0.46 in11.7 mm
12:37 PM 42.1°F5.6°C 35.1°F1.7°C 76% 11.9 mph W19.2 kmh W 22.0 mph35.4 kmh 29.95 in1014.2 mb 0.00 in0.0 mm 0.00 in0.0 mm 0.46 in11.7 mm
12:42 PM 41.8°F5.4°C 34.8°F1.6°C 76% 7.6 mph WNW12.2 kmh WNW 22.0 mph35.4 kmh 29.95 in1014.2 mb 0.00 in0.0 mm 0.00 in0.0 mm 0.46 in11.7 mm
12:47 PM 41.8°F5.4°C 34.5°F1.4°C 75% 8.3 mph WNW13.4 kmh WNW 22.0 mph35.4 kmh 29.95 in1014.2 mb 0.00 in0.0 mm 0.00 in0.0 mm 0.46 in11.7 mm
12:52 PM 41.6°F5.3°C 34.6°F1.4°C 76% 7.5 mph WNW12.1 kmh WNW 22.0 mph35.4 kmh 29.95 in1014.2 mb 0.00 in0.0 mm 0.00 in0.0 mm 0.46 in11.7 mm
12:57 PM 41.9°F5.5°C 34.9°F1.6°C 76% 5.3 mph W8.5 kmh W 17.0 mph27.4 kmh 29.94 in1013.9 mb 0.00 in0.0 mm 0.00 in0.0 mm 0.46 in11.7 mm
01:02 PM 41.7°F5.4°C 34.1°F1.2°C 74% 8.6 mph WNW13.8 kmh WNW 17.0 mph27.4 kmh 29.94 in1013.9 mb 0.00 in0.0 mm 0.00 in0.0 mm 0.46 in11.7 mm
01:07 PM 41.3°F5.2°C 33.7°F0.9°C 74% 8.2 mph WNW13.2 kmh WNW 17.0 mph27.4 kmh 29.94 in1013.9 mb 0.00 in0.0 mm 0.00 in0.0 mm 0.46 in11.7 mm
01:12 PM 41.2°F5.1°C 33.9°F1.1°C 75% 9.2 mph WNW14.8 kmh WNW 18.0 mph29.0 kmh 29.95 in1014.2 mb 0.00 in0.0 mm 0.00 in0.0 mm 0.46 in11.7 mm
01:17 PM 41.7°F5.4°C 34.1°F1.2°C 74% 10.8 mph W17.4 kmh W 19.0 mph30.6 kmh 29.94 in1013.9 mb 0.00 in0.0 mm 0.00 in0.0 mm 0.46 in11.7 mm
01:22 PM 41.4°F5.2°C 33.7°F0.9°C 74% 8.1 mph W13.0 kmh W 21.0 mph33.8 kmh 29.95 in1014.2 mb 0.00 in0.0 mm 0.00 in0.0 mm 0.46 in11.7 mm
01:27 PM 41.2°F5.1°C 33.6°F0.9°C 74% 9.0 mph W14.5 kmh W 21.0 mph33.8 kmh 29.94 in1013.9 mb 0.00 in0.0 mm 0.00 in0.0 mm 0.46 in11.7 mm
01:32 PM 41.1°F5.1°C 33.5°F0.8°C 74% 12.6 mph WNW20.3 kmh WNW 21.0 mph33.8 kmh 29.94 in1013.9 mb 0.00 in0.0 mm 0.00 in0.0 mm 0.46 in11.7 mm
01:37 PM 41.5°F5.3°C 34.2°F1.2°C 75% 5.1 mph NW8.2 kmh NW 21.0 mph33.8 kmh 29.94 in1013.9 mb 0.00 in0.0 mm 0.00 in0.0 mm 0.46 in11.7 mm
01:42 PM 41.6°F5.3°C 34.0°F1.1°C 74% 7.5 mph WNW12.1 kmh WNW 20.0 mph32.2 kmh 29.94 in1013.9 mb 0.00 in0.0 mm 0.00 in0.0 mm 0.46 in11.7 mm
01:47 PM 41.4°F5.2°C 33.7°F0.9°C 74% 8.4 mph W13.5 kmh W 20.0 mph32.2 kmh 29.94 in1013.9 mb 0.00 in0.0 mm 0.00 in0.0 mm 0.46 in11.7 mm
01:52 PM 41.4°F5.2°C 34.1°F1.2°C 75% 8.5 mph WNW13.7 kmh WNW 16.0 mph25.7 kmh 29.94 in1013.9 mb 0.00 in0.0 mm 0.00 in0.0 mm 0.46 in11.7 mm
01:57 PM 41.9°F5.5°C 33.9°F1.1°C 73% 7.9 mph WNW12.7 kmh WNW 16.0 mph25.7 kmh 29.94 in1013.9 mb 0.00 in0.0 mm 0.00 in0.0 mm 0.46 in11.7 mm
02:02 PM 42.0°F5.6°C 34.0°F1.1°C 73% 6.3 mph WNW10.1 kmh WNW 16.0 mph25.7 kmh 29.95 in1014.2 mb 0.00 in0.0 mm 0.00 in0.0 mm 0.46 in11.7 mm
02:07 PM 41.9°F5.5°C 33.9°F1.1°C 73% 6.6 mph NW10.6 kmh NW 16.0 mph25.7 kmh 29.95 in1014.2 mb 0.00 in0.0 mm 0.00 in0.0 mm 0.46 in11.7 mm
02:12 PM 41.6°F5.3°C 33.7°F0.9°C 73% 4.6 mph NW7.4 kmh NW 16.0 mph25.7 kmh 29.95 in1014.2 mb 0.00 in0.0 mm 0.00 in0.0 mm 0.46 in11.7 mm
02:17 PM 41.7°F5.4°C 34.1°F1.2°C 74% 5.8 mph WNW9.3 kmh WNW 14.0 mph22.5 kmh 29.96 in1014.6 mb 0.00 in0.0 mm 0.00 in0.0 mm 0.46 in11.7 mm
02:22 PM 41.6°F5.3°C 34.0°F1.1°C 74% 8.9 mph WNW14.3 kmh WNW 14.0 mph22.5 kmh 29.96 in1014.6 mb 0.00 in0.0 mm 0.00 in0.0 mm 0.46 in11.7 mm
02:27 PM 41.4°F5.2°C 34.5°F1.4°C 76% 8.2 mph W13.2 kmh W 16.0 mph25.7 kmh 29.96 in1014.6 mb 0.00 in0.0 mm 0.00 in0.0 mm 0.46 in11.7 mm
02:32 PM 40.7°F4.8°C 34.1°F1.2°C 77% 8.1 mph W13.0 kmh W 17.0 mph27.4 kmh 29.95 in1014.2 mb 0.00 in0.0 mm 0.00 in0.0 mm 0.46 in11.7 mm
02:37 PM 40.6°F4.8°C 34.0°F1.1°C 77% 8.1 mph WNW13.0 kmh WNW 17.0 mph27.4 kmh 29.95 in1014.2 mb 0.00 in0.0 mm 0.00 in0.0 mm 0.46 in11.7 mm
02:42 PM 40.5°F4.7°C 33.6°F0.9°C 76% 7.2 mph NW11.6 kmh NW 18.0 mph29.0 kmh 29.95 in1014.2 mb 0.00 in0.0 mm 0.00 in0.0 mm 0.46 in11.7 mm
02:47 PM 41.1°F5.1°C 33.8°F1.0°C 75% 4.1 mph WNW6.6 kmh WNW 18.0 mph29.0 kmh 29.95 in1014.2 mb 0.00 in0.0 mm 0.00 in0.0 mm 0.46 in11.7 mm
02:52 PM 41.5°F5.3°C 33.9°F1.1°C 74% 3.5 mph NW5.6 kmh NW 18.0 mph29.0 kmh 29.95 in1014.2 mb 0.00 in0.0 mm 0.00 in0.0 mm 0.46 in11.7 mm
02:57 PM 41.7°F5.4°C 32.7°F0.4°C 70% 5.5 mph NW8.9 kmh NW 18.0 mph29.0 kmh 29.95 in1014.2 mb 0.00 in0.0 mm 0.00 in0.0 mm 0.46 in11.7 mm
03:02 PM 41.7°F5.4°C 33.1°F0.6°C 71% 8.0 mph NW12.9 kmh NW 16.0 mph25.7 kmh 29.96 in1014.6 mb 0.00 in0.0 mm 0.00 in0.0 mm 0.46 in11.7 mm
03:07 PM 41.7°F5.4°C 33.1°F0.6°C 71% 5.6 mph WNW9.0 kmh WNW 16.0 mph25.7 kmh 29.96 in1014.6 mb 0.00 in0.0 mm 0.00 in0.0 mm 0.46 in11.7 mm
03:12 PM 41.3°F5.2°C 33.0°F0.6°C 72% 6.6 mph WNW10.6 kmh WNW 17.0 mph27.4 kmh 29.96 in1014.6 mb 0.00 in0.0 mm 0.00 in0.0 mm 0.46 in11.7 mm
03:17 PM 41.4°F5.2°C 32.8°F0.4°C 71% 6.1 mph WNW9.8 kmh WNW 17.0 mph27.4 kmh 29.96 in1014.6 mb 0.00 in0.0 mm 0.00 in0.0 mm 0.46 in11.7 mm
03:22 PM 41.0°F5.0°C 32.0°F0.0°C 70% 8.6 mph WNW13.8 kmh WNW 17.0 mph27.4 kmh 29.97 in1014.9 mb 0.00 in0.0 mm 0.00 in0.0 mm 0.46 in11.7 mm
03:27 PM 41.0°F5.0°C 32.0°F0.0°C 70% 8.0 mph W12.9 kmh W 17.0 mph27.4 kmh 29.97 in1014.9 mb 0.00 in0.0 mm 0.00 in0.0 mm 0.46 in11.7 mm
03:32 PM 41.3°F5.2°C 32.2°F0.1°C 70% 8.2 mph WNW13.2 kmh WNW 14.0 mph22.5 kmh 29.97 in1014.9 mb 0.00 in0.0 mm 0.00 in0.0 mm 0.46 in11.7 mm
03:37 PM 41.7°F5.4°C 33.1°F0.6°C 71% 6.9 mph WNW11.1 kmh WNW 14.0 mph22.5 kmh 29.97 in1014.9 mb 0.00 in0.0 mm 0.00 in0.0 mm 0.46 in11.7 mm
03:42 PM 41.8°F5.4°C 33.2°F0.7°C 71% 4.7 mph WNW7.6 kmh WNW 14.0 mph22.5 kmh 29.97 in1014.9 mb 0.00 in0.0 mm 0.00 in0.0 mm 0.46 in11.7 mm
03:47 PM 41.9°F5.5°C 32.9°F0.5°C 70% 4.2 mph WNW6.8 kmh WNW 14.0 mph22.5 kmh 29.96 in1014.6 mb 0.00 in0.0 mm 0.00 in0.0 mm 0.46 in11.7 mm
03:52 PM 41.9°F5.5°C 32.1°F0.1°C 68% 7.0 mph WNW11.3 kmh WNW 14.0 mph22.5 kmh 29.97 in1014.9 mb 0.00 in0.0 mm 0.00 in0.0 mm 0.46 in11.7 mm
03:57 PM 42.5°F5.8°C 33.1°F0.6°C 69% 3.3 mph WNW5.3 kmh WNW 14.0 mph22.5 kmh 29.97 in1014.9 mb 0.00 in0.0 mm 0.00 in0.0 mm 0.46 in11.7 mm
04:02 PM 42.2°F5.7°C 32.0°F0.0°C 67% 6.8 mph WNW10.9 kmh WNW 15.0 mph24.1 kmh 29.98 in1015.2 mb 0.00 in0.0 mm 0.00 in0.0 mm 0.46 in11.7 mm
04:07 PM 42.0°F5.6°C 31.8°F-0.1°C 67% 5.6 mph WNW9.0 kmh WNW 15.0 mph24.1 kmh 29.98 in1015.2 mb 0.00 in0.0 mm 0.00 in0.0 mm 0.46 in11.7 mm
04:12 PM 41.9°F5.5°C 31.5°F-0.3°C 66% 7.3 mph WNW11.7 kmh WNW 16.0 mph25.7 kmh 29.99 in1015.6 mb 0.00 in0.0 mm 0.00 in0.0 mm 0.46 in11.7 mm
04:17 PM 42.1°F5.6°C 32.0°F0.0°C 67% 4.8 mph WNW7.7 kmh WNW 16.0 mph25.7 kmh 29.99 in1015.6 mb 0.00 in0.0 mm 0.00 in0.0 mm 0.46 in11.7 mm
04:22 PM 42.5°F5.8°C 32.7°F0.4°C 68% 3.6 mph WNW5.8 kmh WNW 16.0 mph25.7 kmh 29.98 in1015.2 mb 0.00 in0.0 mm 0.00 in0.0 mm 0.46 in11.7 mm
04:27 PM 42.6°F5.9°C 32.5°F0.3°C 67% 3.6 mph WNW5.8 kmh WNW 16.0 mph25.7 kmh 29.99 in1015.6 mb 0.00 in0.0 mm 0.00 in0.0 mm 0.46 in11.7 mm
04:32 PM 42.7°F5.9°C 32.2°F0.1°C 66% 5.3 mph W8.5 kmh W 12.0 mph19.3 kmh 29.99 in1015.6 mb 0.00 in0.0 mm 0.00 in0.0 mm 0.46 in11.7 mm
04:37 PM 42.7°F5.9°C 32.2°F0.1°C 66% 6.1 mph W9.8 kmh W 12.0 mph19.3 kmh 29.98 in1015.2 mb 0.00 in0.0 mm 0.00 in0.0 mm 0.46 in11.7 mm
04:42 PM 42.6°F5.9°C 32.1°F0.1°C 66% 6.3 mph NW10.1 kmh NW 14.0 mph22.5 kmh 29.99 in1015.6 mb 0.00 in0.0 mm 0.00 in0.0 mm 0.46 in11.7 mm
04:47 PM 42.7°F5.9°C 32.1°F0.1°C 66% 3.6 mph NW5.8 kmh NW 14.0 mph22.5 kmh 29.99 in1015.6 mb 0.00 in0.0 mm 0.00 in0.0 mm 0.46 in11.7 mm
04:52 PM 43.0°F6.1°C 32.5°F0.3°C 66% 3.7 mph W6.0 kmh W 14.0 mph22.5 kmh 29.99 in1015.6 mb 0.00 in0.0 mm 0.00 in0.0 mm 0.46 in11.7 mm
04:57 PM 43.0°F6.1°C 32.5°F0.3°C 66% 5.4 mph W8.7 kmh W 14.0 mph22.5 kmh 30.00 in1015.9 mb 0.00 in0.0 mm 0.00 in0.0 mm 0.46 in11.7 mm
05:01 PM 42.9°F6.1°C 32.8°F0.4°C 67% 4.2 mph WNW6.8 kmh WNW 13.0 mph20.9 kmh 30.00 in1015.9 mb 0.00 in0.0 mm 0.00 in0.0 mm 0.46 in11.7 mm
05:06 PM 42.9°F6.1°C 32.8°F0.4°C 67% 4.3 mph W6.9 kmh W 13.0 mph20.9 kmh 30.00 in1015.9 mb 0.00 in0.0 mm 0.00 in0.0 mm 0.46 in11.7 mm
05:11 PM 42.8°F6.0°C 32.3°F0.2°C 66% 6.5 mph W10.5 kmh W 13.0 mph20.9 kmh 30.00 in1015.9 mb 0.00 in0.0 mm 0.00 in0.0 mm 0.46 in11.7 mm
05:16 PM 42.6°F5.9°C 32.1°F0.1°C 66% 5.2 mph WNW8.4 kmh WNW 13.0 mph20.9 kmh 30.00 in1015.9 mb 0.00 in0.0 mm 0.00 in0.0 mm 0.46 in11.7 mm
05:21 PM 42.6°F5.9°C 32.5°F0.3°C 67% 3.2 mph W5.1 kmh W 13.0 mph20.9 kmh 30.00 in1015.9 mb 0.00 in0.0 mm 0.00 in0.0 mm 0.46 in11.7 mm
05:26 PM 42.4°F5.8°C 31.9°F-0.1°C 66% 4.5 mph WNW7.2 kmh WNW 13.0 mph20.9 kmh 30.00 in1015.9 mb 0.00 in0.0 mm 0.00 in0.0 mm 0.46 in11.7 mm
05:31 PM 42.2°F5.7°C 32.1°F0.1°C 67% 5.1 mph W8.2 kmh W 10.0 mph16.1 kmh 30.01 in1016.3 mb 0.00 in0.0 mm 0.00 in0.0 mm 0.46 in11.7 mm
05:36 PM 42.0°F5.6°C 31.8°F-0.1°C 67% 3.5 mph W5.6 kmh W 10.0 mph16.1 kmh 30.01 in1016.3 mb 0.00 in0.0 mm 0.00 in0.0 mm 0.46 in11.7 mm
05:41 PM 41.9°F5.5°C 32.2°F0.1°C 68% 5.9 mph W9.5 kmh W 10.0 mph16.1 kmh 30.01 in1016.3 mb 0.00 in0.0 mm 0.00 in0.0 mm 0.46 in11.7 mm
05:46 PM 41.7°F5.4°C 32.0°F0.0°C 68% 5.7 mph WNW9.2 kmh WNW 10.0 mph16.1 kmh 30.01 in1016.3 mb 0.00 in0.0 mm 0.00 in0.0 mm 0.46 in11.7 mm
05:51 PM 41.5°F5.3°C 32.2°F0.1°C 69% 2.6 mph WNW4.2 kmh WNW 10.0 mph16.1 kmh 30.02 in1016.6 mb 0.00 in0.0 mm 0.00 in0.0 mm 0.46 in11.7 mm
05:56 PM 41.3°F5.2°C 32.0°F0.0°C 69% 3.7 mph WNW6.0 kmh WNW 12.0 mph19.3 kmh 30.02 in1016.6 mb 0.00 in0.0 mm 0.00 in0.0 mm 0.46 in11.7 mm
06:01 PM 41.2°F5.1°C 32.2°F0.1°C 70% 2.9 mph W4.7 kmh W 12.0 mph19.3 kmh 30.02 in1016.6 mb 0.00 in0.0 mm 0.00 in0.0 mm 0.46 in11.7 mm
06:06 PM 40.9°F4.9°C 31.9°F-0.1°C 70% 3.7 mph W6.0 kmh W 12.0 mph19.3 kmh 30.02 in1016.6 mb 0.00 in0.0 mm 0.00 in0.0 mm 0.46 in11.7 mm
06:11 PM 40.7°F4.8°C 32.1°F0.1°C 71% 3.8 mph W6.1 kmh W 12.0 mph19.3 kmh 30.02 in1016.6 mb 0.00 in0.0 mm 0.00 in0.0 mm 0.46 in11.7 mm
06:16 PM 40.5°F4.7°C 31.9°F-0.1°C 71% 3.6 mph W5.8 kmh W 10.0 mph16.1 kmh 30.03 in1016.9 mb 0.00 in0.0 mm 0.00 in0.0 mm 0.46 in11.7 mm
06:21 PM 40.4°F4.7°C 32.1°F0.1°C 72% 3.9 mph W6.3 kmh W 8.0 mph12.9 kmh 30.04 in1017.3 mb 0.00 in0.0 mm 0.00 in0.0 mm 0.46 in11.7 mm
06:26 PM 40.2°F4.6°C 32.0°F0.0°C 72% 2.3 mph W3.7 kmh W 8.0 mph12.9 kmh 30.04 in1017.3 mb 0.00 in0.0 mm 0.00 in0.0 mm 0.46 in11.7 mm
06:31 PM 40.1°F4.5°C 31.8°F-0.1°C 72% 2.7 mph W4.3 kmh W 8.0 mph12.9 kmh 30.04 in1017.3 mb 0.00 in0.0 mm 0.00 in0.0 mm 0.46 in11.7 mm
06:36 PM 39.9°F4.4°C 31.6°F-0.2°C 72% 2.2 mph W3.5 kmh W 9.0 mph14.5 kmh 30.04 in1017.3 mb 0.00 in0.0 mm 0.00 in0.0 mm 0.46 in11.7 mm
06:41 PM 39.7°F4.3°C 31.8°F-0.1°C 73% 2.3 mph W3.7 kmh W 9.0 mph14.5 kmh 30.05 in1017.6 mb 0.00 in0.0 mm 0.00 in0.0 mm 0.46 in11.7 mm
06:46 PM 39.7°F4.3°C 31.8°F-0.1°C 73% 2.6 mph W4.2 kmh W 9.0 mph14.5 kmh 30.05 in1017.6 mb 0.00 in0.0 mm 0.00 in0.0 mm 0.46 in11.7 mm
06:51 PM 39.5°F4.2°C 31.6°F-0.2°C 73% 1.8 mph W2.9 kmh W 8.0 mph12.9 kmh 30.05 in1017.6 mb 0.00 in0.0 mm 0.00 in0.0 mm 0.46 in11.7 mm
06:56 PM 39.5°F4.2°C 31.6°F-0.2°C 73% 2.7 mph W4.3 kmh W 6.0 mph9.7 kmh 30.06 in1017.9 mb 0.00 in0.0 mm 0.00 in0.0 mm 0.46 in11.7 mm
07:01 PM 39.4°F4.1°C 31.5°F-0.3°C 73% 2.6 mph WNW4.2 kmh WNW 6.0 mph9.7 kmh 30.06 in1017.9 mb 0.00 in0.0 mm 0.00 in0.0 mm 0.46 in11.7 mm
07:06 PM 39.2°F4.0°C 31.6°F-0.2°C 74% 1.5 mph W2.4 kmh W 6.0 mph9.7 kmh 30.06 in1017.9 mb 0.00 in0.0 mm 0.00 in0.0 mm 0.46 in11.7 mm
07:11 PM 39.0°F3.9°C 31.5°F-0.3°C 74% 1.7 mph W2.7 kmh W 6.0 mph9.7 kmh 30.06 in1017.9 mb 0.00 in0.0 mm 0.00 in0.0 mm 0.46 in11.7 mm
07:16 PM 38.9°F3.8°C 31.4°F-0.3°C 74% 2.0 mph W3.2 kmh W 6.0 mph9.7 kmh 30.06 in1017.9 mb 0.00 in0.0 mm 0.00 in0.0 mm 0.46 in11.7 mm
07:21 PM 38.9°F3.8°C 31.4°F-0.3°C 74% 2.6 mph WNW4.2 kmh WNW 6.0 mph9.7 kmh 30.07 in1018.3 mb 0.00 in0.0 mm 0.00 in0.0 mm 0.46 in11.7 mm
07:26 PM 38.7°F3.7°C 31.5°F-0.3°C 75% 2.0 mph W3.2 kmh W 5.0 mph8.0 kmh 30.07 in1018.3 mb 0.00 in0.0 mm 0.00 in0.0 mm 0.46 in11.7 mm
07:31 PM 38.6°F3.7°C 31.0°F-0.6°C 74% 2.2 mph WNW3.5 kmh WNW 6.0 mph9.7 kmh 30.07 in1018.3 mb 0.00 in0.0 mm 0.00 in0.0 mm 0.46 in11.7 mm
07:36 PM 38.5°F3.6°C 31.0°F-0.6°C 74% 2.3 mph W3.7 kmh W 6.0 mph9.7 kmh 30.07 in1018.3 mb 0.00 in0.0 mm 0.00 in0.0 mm 0.46 in11.7 mm
07:41 PM 38.5°F3.6°C 31.3°F-0.4°C 75% 2.3 mph W3.7 kmh W 6.0 mph9.7 kmh 30.07 in1018.3 mb 0.00 in0.0 mm 0.00 in0.0 mm 0.46 in11.7 mm
07:46 PM 38.4°F3.6°C 30.9°F-0.6°C 74% 2.7 mph WNW4.3 kmh WNW 8.0 mph12.9 kmh 30.07 in1018.3 mb 0.00 in0.0 mm 0.00 in0.0 mm 0.46 in11.7 mm
07:51 PM 38.3°F3.5°C 30.8°F-0.7°C 74% 2.2 mph WNW3.5 kmh WNW 8.0 mph12.9 kmh 30.07 in1018.3 mb 0.00 in0.0 mm 0.00 in0.0 mm 0.46 in11.7 mm
07:56 PM 38.2°F3.4°C 30.7°F-0.7°C 74% 2.8 mph WNW4.5 kmh WNW 8.0 mph12.9 kmh 30.06 in1017.9 mb 0.00 in0.0 mm 0.00 in0.0 mm 0.46 in11.7 mm
08:01 PM 38.1°F3.4°C 30.6°F-0.8°C 74% 2.6 mph WNW4.2 kmh WNW 8.0 mph12.9 kmh 30.07 in1018.3 mb 0.00 in0.0 mm 0.00 in0.0 mm 0.46 in11.7 mm
08:06 PM 38.0°F3.3°C 30.4°F-0.9°C 74% 2.0 mph WNW3.2 kmh WNW 6.0 mph9.7 kmh 30.06 in1017.9 mb 0.00 in0.0 mm 0.00 in0.0 mm 0.46 in11.7 mm
08:12 PM 37.9°F3.3°C 30.4°F-0.9°C 74% 2.6 mph WNW4.2 kmh WNW 7.0 mph11.3 kmh 30.07 in1018.3 mb 0.00 in0.0 mm 0.00 in0.0 mm 0.46 in11.7 mm
08:16 PM 37.9°F3.3°C 30.4°F-0.9°C 74% 3.0 mph WNW4.8 kmh WNW 8.0 mph12.9 kmh 30.07 in1018.3 mb 0.00 in0.0 mm 0.00 in0.0 mm 0.46 in11.7 mm
08:21 PM 37.8°F3.2°C 30.3°F-0.9°C 74% 2.7 mph WNW4.3 kmh WNW 8.0 mph12.9 kmh 30.07 in1018.3 mb 0.00 in0.0 mm 0.00 in0.0 mm 0.46 in11.7 mm
08:27 PM 37.7°F3.2°C 30.2°F-1.0°C 74% 2.7 mph WNW4.3 kmh WNW 8.0 mph12.9 kmh 30.07 in1018.3 mb 0.00 in0.0 mm 0.00 in0.0 mm 0.46 in11.7 mm
08:32 PM 37.7°F3.2°C 30.2°F-1.0°C 74% 2.7 mph WNW4.3 kmh WNW 8.0 mph12.9 kmh 30.07 in1018.3 mb 0.00 in0.0 mm 0.00 in0.0 mm 0.46 in11.7 mm
08:36 PM 37.7°F3.2°C 30.2°F-1.0°C 74% 2.6 mph WNW4.2 kmh WNW 7.0 mph11.3 kmh 30.07 in1018.3 mb 0.00 in0.0 mm 0.00 in0.0 mm 0.46 in11.7 mm
08:41 PM 37.7°F3.2°C 30.2°F-1.0°C 74% 3.1 mph WNW5.0 kmh WNW 7.0 mph11.3 kmh 30.07 in1018.3 mb 0.00 in0.0 mm 0.00 in0.0 mm 0.46 in11.7 mm
08:47 PM 37.6°F3.1°C 30.1°F-1.1°C 74% 2.1 mph WNW3.4 kmh WNW 7.0 mph11.3 kmh 30.08 in1018.6 mb 0.00 in0.0 mm 0.00 in0.0 mm 0.46 in11.7 mm
08:52 PM 37.5°F3.1°C 30.3°F-0.9°C 75% 2.2 mph WNW3.5 kmh WNW 7.0 mph11.3 kmh 30.08 in1018.6 mb 0.00 in0.0 mm 0.00 in0.0 mm 0.46 in11.7 mm
08:57 PM 37.4°F3.0°C 30.2°F-1.0°C 75% 1.8 mph WNW2.9 kmh WNW 7.0 mph11.3 kmh 30.08 in1018.6 mb 0.00 in0.0 mm 0.00 in0.0 mm 0.46 in11.7 mm
09:02 PM 37.4°F3.0°C 29.9°F-1.2°C 74% 2.6 mph NW4.2 kmh NW 7.0 mph11.3 kmh 30.08 in1018.6 mb 0.00 in0.0 mm 0.00 in0.0 mm 0.46 in11.7 mm
09:07 PM 37.4°F3.0°C 29.9°F-1.2°C 74% 3.0 mph NW4.8 kmh NW 7.0 mph11.3 kmh 30.08 in1018.6 mb 0.00 in0.0 mm 0.00 in0.0 mm 0.46 in11.7 mm
09:12 PM 37.3°F2.9°C 29.8°F-1.2°C 74% 3.6 mph NW5.8 kmh NW 7.0 mph11.3 kmh 30.08 in1018.6 mb 0.00 in0.0 mm 0.00 in0.0 mm 0.46 in11.7 mm
09:17 PM 37.3°F2.9°C 29.8°F-1.2°C 74% 4.4 mph NW7.1 kmh NW 9.0 mph14.5 kmh 30.08 in1018.6 mb 0.00 in0.0 mm 0.00 in0.0 mm 0.46 in11.7 mm
09:22 PM 37.3°F2.9°C 29.8°F-1.2°C 74% 3.6 mph NW5.8 kmh NW 9.0 mph14.5 kmh 30.08 in1018.6 mb 0.00 in0.0 mm 0.00 in0.0 mm 0.46 in11.7 mm
09:27 PM 37.4°F3.0°C 29.6°F-1.3°C 73% 6.1 mph NW9.8 kmh NW 11.0 mph17.7 kmh 30.08 in1018.6 mb 0.00 in0.0 mm 0.00 in0.0 mm 0.46 in11.7 mm
09:32 PM 37.5°F3.1°C 29.7°F-1.3°C 73% 4.0 mph NW6.4 kmh NW 11.0 mph17.7 kmh 30.08 in1018.6 mb 0.00 in0.0 mm 0.00 in0.0 mm 0.46 in11.7 mm
09:37 PM 37.5°F3.1°C 29.4°F-1.4°C 72% 5.2 mph NW8.4 kmh NW 11.0 mph17.7 kmh 30.08 in1018.6 mb 0.00 in0.0 mm 0.00 in0.0 mm 0.46 in11.7 mm
09:42 PM 37.4°F3.0°C 29.3°F-1.5°C 72% 2.7 mph NW4.3 kmh NW 11.0 mph17.7 kmh 30.08 in1018.6 mb 0.00 in0.0 mm 0.00 in0.0 mm 0.46 in11.7 mm
09:47 PM 37.5°F3.1°C 29.4°F-1.4°C 72% 4.8 mph NW7.7 kmh NW 10.0 mph16.1 kmh 30.08 in1018.6 mb 0.00 in0.0 mm 0.00 in0.0 mm 0.46 in11.7 mm
09:52 PM 37.4°F3.0°C 29.3°F-1.5°C 72% 5.0 mph NW8.0 kmh NW 10.0 mph16.1 kmh 30.07 in1018.3 mb 0.00 in0.0 mm 0.00 in0.0 mm 0.46 in11.7 mm
09:57 PM 37.4°F3.0°C 29.3°F-1.5°C 72% 2.9 mph NW4.7 kmh NW 10.0 mph16.1 kmh 30.08 in1018.6 mb 0.00 in0.0 mm 0.00 in0.0 mm 0.46 in11.7 mm
10:01 PM 37.3°F2.9°C 29.2°F-1.6°C 72% 2.6 mph NW4.2 kmh NW 10.0 mph16.1 kmh 30.08 in1018.6 mb 0.00 in0.0 mm 0.00 in0.0 mm 0.46 in11.7 mm
10:06 PM 37.3°F2.9°C 29.2°F-1.6°C 72% 3.7 mph NW6.0 kmh NW 9.0 mph14.5 kmh 30.08 in1018.6 mb 0.00 in0.0 mm 0.00 in0.0 mm 0.46 in11.7 mm
10:11 PM 37.3°F2.9°C 29.2°F-1.6°C 72% 4.2 mph NW6.8 kmh NW 11.0 mph17.7 kmh 30.08 in1018.6 mb 0.00 in0.0 mm 0.00 in0.0 mm 0.46 in11.7 mm
10:16 PM 37.2°F2.9°C 29.3°F-1.5°C 73% 1.3 mph NW2.1 kmh NW 11.0 mph17.7 kmh 30.08 in1018.6 mb 0.00 in0.0 mm 0.00 in0.0 mm 0.46 in11.7 mm
10:21 PM 37.1°F2.8°C 29.2°F-1.6°C 73% 3.2 mph NW5.1 kmh NW 11.0 mph17.7 kmh 30.09 in1019.0 mb 0.00 in0.0 mm 0.00 in0.0 mm 0.46 in11.7 mm
10:26 PM 37.1°F2.8°C 29.3°F-1.5°C 73% 2.9 mph NW4.7 kmh NW 11.0 mph17.7 kmh 30.09 in1019.0 mb 0.00 in0.0 mm 0.00 in0.0 mm 0.46 in11.7 mm
10:31 PM 37.1°F2.8°C 29.3°F-1.5°C 73% 5.4 mph NW8.7 kmh NW 10.0 mph16.1 kmh 30.09 in1019.0 mb 0.00 in0.0 mm 0.00 in0.0 mm 0.46 in11.7 mm
10:36 PM 37.1°F2.8°C 29.3°F-1.5°C 73% 3.9 mph WNW6.3 kmh WNW 10.0 mph16.1 kmh 30.09 in1019.0 mb 0.00 in0.0 mm 0.00 in0.0 mm 0.46 in11.7 mm
10:41 PM 36.9°F2.7°C 29.1°F-1.6°C 73% 3.4 mph NW5.5 kmh NW 10.0 mph16.1 kmh 30.10 in1019.3 mb 0.00 in0.0 mm 0.00 in0.0 mm 0.46 in11.7 mm
10:46 PM 36.9°F2.7°C 29.1°F-1.6°C 73% 3.4 mph WNW5.5 kmh WNW 12.0 mph19.3 kmh 30.10 in1019.3 mb 0.00 in0.0 mm 0.00 in0.0 mm 0.46 in11.7 mm
10:51 PM 36.8°F2.7°C 29.3°F-1.5°C 74% 3.2 mph WNW5.1 kmh WNW 12.0 mph19.3 kmh 30.10 in1019.3 mb 0.00 in0.0 mm 0.00 in0.0 mm 0.46 in11.7 mm
10:56 PM 36.7°F2.6°C 29.2°F-1.6°C 74% 4.3 mph WNW6.9 kmh WNW 12.0 mph19.3 kmh 30.10 in1019.3 mb 0.00 in0.0 mm 0.00 in0.0 mm 0.46 in11.7 mm
11:01 PM 36.7°F2.6°C 29.2°F-1.6°C 74% 2.7 mph NW4.3 kmh NW 12.0 mph19.3 kmh 30.11 in1019.6 mb 0.00 in0.0 mm 0.00 in0.0 mm 0.46 in11.7 mm
11:06 PM 36.6°F2.6°C 29.1°F-1.6°C 74% 2.1 mph NW3.4 kmh NW 10.0 mph16.1 kmh 30.11 in1019.6 mb 0.00 in0.0 mm 0.00 in0.0 mm 0.46 in11.7 mm
11:11 PM 36.5°F2.5°C 29.0°F-1.7°C 74% 3.8 mph NW6.1 kmh NW 10.0 mph16.1 kmh 30.11 in1019.6 mb 0.00 in0.0 mm 0.00 in0.0 mm 0.46 in11.7 mm
11:16 PM 36.5°F2.5°C 29.1°F-1.6°C 74% 3.8 mph WNW6.1 kmh WNW 10.0 mph16.1 kmh 30.11 in1019.6 mb 0.00 in0.0 mm 0.00 in0.0 mm 0.46 in11.7 mm
11:21 PM 36.5°F2.5°C 29.1°F-1.6°C 74% 4.7 mph NW7.6 kmh NW 9.0 mph14.5 kmh 30.11 in1019.6 mb 0.00 in0.0 mm 0.00 in0.0 mm 0.46 in11.7 mm
11:26 PM 36.4°F2.4°C 29.3°F-1.5°C 75% 3.9 mph NW6.3 kmh NW 9.0 mph14.5 kmh 30.11 in1019.6 mb 0.00 in0.0 mm 0.00 in0.0 mm 0.46 in11.7 mm
11:31 PM 36.3°F2.4°C 29.2°F-1.6°C 75% 4.9 mph NW7.9 kmh NW 9.0 mph14.5 kmh 30.11 in1019.6 mb 0.00 in0.0 mm 0.00 in0.0 mm 0.46 in11.7 mm
11:36 PM 36.2°F2.3°C 29.1°F-1.6°C 75% 2.4 mph NW3.9 kmh NW 9.0 mph14.5 kmh 30.11 in1019.6 mb 0.00 in0.0 mm 0.00 in0.0 mm 0.46 in11.7 mm
11:41 PM 36.2°F2.3°C 29.0°F-1.7°C 75% 3.0 mph NW4.8 kmh NW 8.0 mph12.9 kmh 30.11 in1019.6 mb 0.00 in0.0 mm 0.00 in0.0 mm 0.46 in11.7 mm
11:46 PM 36.1°F2.3°C 29.0°F-1.7°C 75% 3.3 mph NW5.3 kmh NW 8.0 mph12.9 kmh 30.11 in1019.6 mb 0.00 in0.0 mm 0.00 in0.0 mm 0.46 in11.7 mm
11:51 PM 36.1°F2.3°C 29.3°F-1.5°C 76% 3.9 mph NW6.3 kmh NW 8.0 mph12.9 kmh 30.11 in1019.6 mb 0.00 in0.0 mm 0.00 in0.0 mm 0.46 in11.7 mm
11:56 PM 36.1°F2.3°C 29.0°F-1.7°C 75% 3.7 mph NW6.0 kmh NW 9.0 mph14.5 kmh 30.11 in1019.6 mb 0.00 in0.0 mm 0.00 in0.0 mm 0.46 in11.7 mm